Latest Weather Observations for Ivanhoe Airport

IDN60801

Issued at 11:33 pm EST Saturday 1 October 2016 (issued every 30 minutes, with the page automatically refreshed every 10 minutes)

About weather observations | Map of weather stations | Latest weather observations for NSW | Other Formats
Station Details ID: 049000 Name: IVANHOE AERODROME AWS Lat: -32.88 Lon: 144.31 Height: 100.0 m
Data from the previous 72 hours. | See also: Recent months at Ivanhoe Airport
Date/Time
EST
Temp
°C
App
Temp
°C
Dew
Point
°C
Rel
Hum
%
Delta-T
°C
Wind Press
QNH
hPa
Press
MSL
hPa
Rain since
9am
mm
Dir  Spd
km/h
Gust
km/h
Spd
kts
Gust
kts
01/11:30pm 10.8 7.6 6.9 77 1.9 NNE 13 17 7 9 1009.6 1009.3 0.0
01/11:00pm 11.2 8.1 7.3 77 1.9 NNE 13 15 7 8 1009.8 1009.5 0.0
01/10:30pm 11.9 8.8 7.4 74 2.2 N 13 15 7 8 1010.1 1009.8 0.0
01/10:00pm 12.5 9.9 7.8 73 2.3 N 11 13 6 7 1010.3 1010.0 0.0
01/09:30pm 13.3 11.2 8.2 71 2.5 N 9 13 5 7 1010.4 1010.1 0.0
01/09:00pm 13.4 10.9 8.3 71 2.6 N 11 11 6 6 1010.3 1010.0 0.0
01/08:30pm 13.4 10.9 8.3 71 2.6 N 11 13 6 7 1010.1 1009.8 0.0
01/08:00pm 13.7 11.2 8.3 70 2.7 NNE 11 13 6 7 1009.6 1009.3 0.0
01/07:30pm 14.3 11.8 8.3 67 3.0 NNE 11 13 6 7 1009.3 1009.0 0.0
01/07:00pm 15.2 12.7 8.2 63 3.5 N 11 11 6 6 1009.3 1009.0 0.0
01/06:30pm 17.0 14.4 7.9 55 4.6 N 11 15 6 8 1009.1 1008.8 0.0
01/06:00pm 19.0 15.2 7.4 47 5.9 NNW 17 24 9 13 1008.9 1008.6 0.0
01/05:30pm 19.8 15.5 7.2 44 6.4 NNW 19 30 10 16 1008.9 1008.6 0.0
01/05:00pm 20.4 15.8 6.7 41 7.0 NW 20 33 11 18 1008.8 1008.5 0.0
01/04:30pm 20.6 15.9 7.9 44 6.6 NW 22 33 12 18 1008.7 1008.4 0.0
01/04:00pm 20.5 15.3 7.2 42 6.8 NNW 24 35 13 19 1008.6 1008.3 0.0
01/03:30pm 20.5 15.8 7.8 44 6.6 WNW 22 33 12 18 1008.7 1008.4 0.0
01/03:00pm 20.8 16.0 8.8 46 6.4 NW 24 33 13 18 1009.1 1008.8 0.0
01/02:30pm 20.5 15.7 8.8 47 6.2 NW 24 35 13 19 1009.3 1009.0 0.0
01/02:00pm 19.8 15.5 7.9 46 6.2 NW 20 33 11 18 1009.5 1009.2 0.0
01/01:30pm 19.6 15.1 8.6 49 5.8 NW 22 32 12 17 1009.8 1009.5 0.0
01/01:00pm 18.6 13.5 7.7 49 5.6 NW 24 35 13 19 1010.1 1009.8 0.0
01/12:30pm 17.6 11.9 6.5 48 5.5 NW 26 39 14 21 1010.5 1010.2 0.0
01/12:00pm 17.9 11.8 6.7 48 5.6 NW 28 41 15 22 1010.6 1010.3 0.0
01/11:30am 17.2 12.4 7.5 53 4.9 W 22 32 12 17 1010.8 1010.5 0.0
01/11:00am 16.9 12.5 7.3 53 4.8 WNW 20 30 11 16 1011.2 1010.9 0.0
01/10:30am 16.5 12.6 8.5 59 4.1 W 19 30 10 16 1011.5 1011.2 0.0
01/10:00am 15.8 12.1 7.8 59 4.0 W 17 28 9 15 1011.7 1011.4 0.0
01/09:30am 15.3 11.8 8.8 65 3.3 WNW 17 24 9 13 1011.6 1011.5 0.0
01/09:00am 14.2 10.6 8.4 68 2.9 W 17 24 9 13 1011.7 1011.6 0.8
01/08:30am 13.4 10.3 8.7 73 2.4 W 15 22 8 12 1011.3 1011.2 0.6
01/08:00am 12.5 9.1 9.1 80 1.7 WNW 17 24 9 13 1011.3 1011.2 0.6
01/07:30am 11.8 9.4 10.0 89 0.9 WNW 13 17 7 9 1010.7 1010.6 0.6
01/07:00am 10.3 8.3 10.0 98 0.2 WNW 11 13 6 7 1010.5 1010.4 0.6
01/06:30am 9.0 6.7 8.9 99 0.0 WNW 11 13 6 7 1010.0 1009.9 0.6
01/06:00am 8.8 6.0 8.7 99 0.0 WNW 13 15 7 8 1009.3 1009.2 0.6
01/05:30am 9.0 6.3 8.9 99 0.0 WNW 13 15 7 8 1008.9 1008.7 0.6
01/05:00am 9.0 6.6 8.7 98 0.1 WNW 11 13 6 7 1008.3 1008.1 0.6
01/04:30am 10.0 8.3 9.7 98 0.2 W 9 13 5 7 1007.8 1007.6 0.6
01/04:00am 10.0 7.6 9.9 99 0.1 WNW 13 17 7 9 1007.7 1007.5 0.6
01/03:30am 10.1 8.1 10.0 99 0.1 WNW 11 13 6 7 1007.1 1006.9 0.6
01/03:00am 10.8 8.9 10.6 99 0.1 WNW 11 17 6 9 1006.8 1006.6 0.6
01/02:30am 11.1 8.9 10.9 99 0.1 NW 13 17 7 9 1006.5 1006.3 0.6
01/02:00am 11.3 9.2 11.1 99 0.1 WNW 13 15 7 8 1006.5 1006.3 0.6
01/01:30am 11.7 10.1 11.5 99 0.1 NW 11 15 6 8 1006.5 1006.3 0.6
01/01:00am 11.5 9.8 11.3 99 0.1 NW 11 13 6 7 1006.4 1006.2 0.6
01/12:30am 12.0 10.9 11.8 99 0.1 WNW 9 13 5 7 1006.2 1006.0 0.6
01/12:00am 12.6 10.5 12.4 99 0.1 WNW 15 19 8 10 1006.2 1006.0 0.6
 
Date/Time
EST
Temp
°C
App
Temp
°C
Dew
Point
°C
Rel
Hum
%
Delta-T
°C
Wind Press
QNH
hPa
Press
MSL
hPa
Rain since
9am
mm
Dir  Spd
km/h
Gust
km/h
Spd
kts
Gust
kts
30/11:30pm 12.0 9.7 11.8 99 0.1 NW 15 19 8 10 1006.2 1006.0 0.6
30/11:00pm 11.8 9.3 11.2 96 0.3 NW 15 19 8 10 1006.3 1006.1 0.6
30/10:30pm 12.2 9.3 11.1 93 0.6 WNW 17 24 9 13 1006.2 1006.0 0.6
30/10:00pm 13.3 11.5 10.7 84 1.4 W 11 24 6 13 1006.3 1006.1 0.2
30/09:30pm 14.3 11.9 9.9 75 2.3 NW 13 20 7 11 1005.7 1005.6 0.0
30/09:00pm 14.6 12.5 9.8 73 2.5 WNW 11 19 6 10 1005.5 1005.4 0.0
30/08:30pm 14.6 12.1 9.6 72 2.6 WNW 13 20 7 11 1005.0 1004.9 0.0
30/08:00pm 14.7 12.1 9.3 70 2.8 NW 13 17 7 9 1004.6 1004.5 0.0
30/07:30pm 14.9 12.3 9.3 69 2.9 WNW 13 17 7 9 1004.2 1004.1 0.0
30/07:00pm 15.1 12.1 9.2 68 3.1 W 15 20 8 11 1003.9 1003.8 0.0
30/06:30pm 15.9 11.7 8.4 61 3.8 W 20 32 11 17 1003.5 1003.4 0.0
30/06:00pm 16.7 11.7 7.9 56 4.5 WNW 24 32 13 17 1003.0 1002.9 0.0
30/05:30pm 16.7 10.9 7.9 56 4.5 WNW 28 41 15 22 1002.5 1002.4 0.0
30/05:00pm 17.9 11.3 8.5 54 4.9 NW 33 46 18 25 1002.1 1002.0 0.0
30/04:46pm 17.2 10.9 7.5 53 4.9 NW 30 52 16 28 1001.9 1001.8 0.0
30/04:30pm 16.8 11.0 8.0 56 4.5 NW 28 37 15 20 1002.2 1002.1 0.0
30/04:00pm 16.8 10.1 7.2 53 4.8 WNW 32 50 17 27 1002.1 1002.0 0.0
30/03:42pm 16.9 11.0 7.3 53 4.8 NW 28 46 15 25 1002.0 1001.9 0.0
30/03:30pm 16.7 10.3 7.1 53 4.8 WNW 30 43 16 23 1002.0 1001.9 0.0
30/03:09pm 17.0 10.1 7.1 52 5.0 WNW 33 52 18 28 1002.0 1001.9 0.0
30/03:00pm 16.7 9.6 6.2 50 5.2 WNW 33 46 18 25 1001.9 1001.8 0.0
30/02:30pm 16.9 9.9 6.7 51 5.1 WNW 33 46 18 25 1001.9 1001.8 0.0
30/02:00pm 17.2 10.5 5.8 47 5.6 WNW 30 46 16 25 1002.1 1002.0 0.0
30/01:30pm 16.5 9.3 6.1 50 5.1 WNW 33 46 18 25 1002.1 1002.0 0.0
30/01:00pm 16.5 10.9 7.2 54 4.7 WNW 26 37 14 20 1002.1 1002.0 0.0
30/12:30pm 15.7 10.1 7.2 57 4.2 WNW 26 39 14 21 1002.0 1001.9 0.0
30/12:02pm 15.3 9.2 6.6 56 4.3 W 28 46 15 25 1001.8 1001.7 0.0
30/12:00pm 15.3 9.4 7.3 59 4.0 WNW 28 37 15 20 1001.8 1001.7 0.0
30/11:30am 14.9 8.4 6.7 58 4.0 WNW 30 43 16 23 1001.5 1001.4 0.0
30/11:00am 14.3 8.8 7.4 63 3.4 W 26 43 14 23 1001.1 1001.0 0.0
30/10:30am 13.6 8.2 7.8 68 2.9 W 26 39 14 21 1001.1 1001.0 0.0
30/10:00am 12.9 6.9 7.1 68 2.8 W 28 44 15 24 1000.9 1000.8 0.0
30/09:37am 12.3 6.5 7.8 74 2.2 W 28 46 15 25 1000.6 1000.5 0.0
30/09:30am 11.9 5.6 7.4 74 2.2 W 30 46 16 25 1000.5 1000.4 0.0
30/09:00am 12.4 7.0 8.1 75 2.1 WNW 26 37 14 20 999.7 999.5 0.6
30/08:30am 9.7 4.4 8.5 92 0.6 WNW 26 37 14 20 999.6 999.4 0.6
30/08:22am 9.6 3.2 8.7 94 0.4 WNW 32 50 17 27 999.5 999.3 0.6
30/08:00am 10.7 3.6 6.5 75 2.0 WNW 33 46 18 25 998.7 998.5 0.6
30/07:40am 11.0 4.0 6.2 72 2.3 NW 32 54 17 29 998.0 997.8 0.6
30/07:30am 10.9 3.4 6.1 72 2.2 NW 35 48 19 26 997.8 997.6 0.6
30/07:08am 10.6 3.5 6.2 74 2.1 NW 33 52 18 28 997.5 997.3 0.6
30/07:00am 10.6 2.7 6.2 74 2.1 NW 37 52 20 28 997.4 997.2 0.6
30/06:38am 10.1 3.0 6.4 78 1.7 NW 33 52 18 28 997.1 996.9 0.6
30/06:30am 10.5 3.0 6.1 74 2.1 NW 35 50 19 27 996.9 996.7 0.6
30/06:00am 10.8 2.9 6.0 72 2.3 NW 37 57 20 31 996.3 996.1 0.6
30/05:39am 10.8 2.9 6.0 72 2.2 NW 37 59 20 32 996.0 995.8 0.6
30/05:30am 10.8 3.2 6.0 72 2.2 NW 35 50 19 27 996.0 995.8 0.6
30/05:00am 10.7 3.1 5.9 72 2.3 NW 35 63 19 34 995.9 995.7 0.6
30/04:30am 10.9 3.0 6.1 72 2.2 NW 37 57 20 31 995.7 995.5 0.6
30/04:01am 11.2 2.5 5.9 70 2.5 NW 41 59 22 32 995.9 995.7 0.6
30/04:00am 11.2 2.5 5.9 70 2.5 NW 41 57 22 31 995.8 995.6 0.6
30/03:30am 11.3 2.2 6.0 70 2.5 NW 43 61 23 33 995.5 995.4 0.6
30/03:00am 11.6 2.9 5.9 68 2.7 NW 41 65 22 35 995.5 995.4 0.6
30/02:34am 11.7 3.8 6.0 68 2.7 NW 37 63 20 34 995.8 995.6 0.6
30/02:30am 11.7 3.4 6.0 68 2.7 NW 39 54 21 29 995.8 995.6 0.6
30/02:03am 11.6 3.7 6.3 70 2.5 NW 37 56 20 30 996.0 995.8 0.6
30/02:00am 11.6 3.3 6.3 70 2.5 NW 39 56 21 30 996.0 995.8 0.6
30/01:30am 11.4 2.9 6.9 74 2.2 NW 41 69 22 37 996.3 996.1 0.6
30/01:00am 12.0 3.4 6.5 69 2.6 NW 41 61 22 33 996.3 996.1 0.6
30/12:30am 12.4 3.3 6.0 65 3.0 NW 43 65 23 35 996.2 996.0 0.6
30/12:00am 12.7 2.7 6.1 64 3.2 NW 48 70 26 38 995.9 995.7 0.6
 
Date/Time
EST
Temp
°C
App
Temp
°C
Dew
Point
°C
Rel
Hum
%
Delta-T
°C
Wind Press
QNH
hPa
Press
MSL
hPa
Rain since
9am
mm
Dir  Spd
km/h
Gust
km/h
Spd
kts
Gust
kts
29/11:40pm 12.7 4.4 6.3 65 3.1 NW 39 65 21 35 995.8 995.6 0.6
29/11:30pm 12.8 5.0 6.6 66 3.0 NW 37 54 20 29 995.9 995.7 0.6
29/11:02pm 12.9 4.3 6.5 65 3.1 NW 41 61 22 33 995.7 995.5 0.6
29/11:00pm 12.8 4.6 6.6 66 3.0 NW 39 54 21 29 995.7 995.5 0.6
29/10:30pm 12.9 3.8 6.7 66 3.0 NW 44 72 24 39 995.8 995.6 0.6
29/10:00pm 12.9 3.4 6.7 66 3.0 NW 46 67 25 36 995.9 995.7 0.6
29/09:30pm 12.8 5.0 6.8 67 2.9 NW 37 56 20 30 995.9 995.7 0.6
29/09:05pm 12.5 5.2 7.0 69 2.7 NW 35 54 19 29 995.9 995.7 0.6
29/09:00pm 12.3 5.0 7.0 70 2.6 NW 35 50 19 27 996.0 995.8 0.6
29/08:30pm 12.5 5.0 6.5 67 2.9 NW 35 56 19 30 995.9 995.7 0.6
29/08:07pm 12.1 5.3 6.8 70 2.5 NNW 32 57 17 31 995.8 995.6 0.6
29/08:00pm 11.8 4.8 6.9 72 2.4 NNW 33 48 18 26 995.8 995.6 0.6
29/07:30pm 11.3 4.0 7.2 76 2.0 NNW 35 56 19 30 995.8 995.6 0.6
29/07:20pm 10.7 4.8 7.6 81 1.5 NNW 28 46 15 25 996.0 995.8 0.6
29/07:00pm 10.2 4.0 7.8 85 1.2 NW 30 44 16 24 996.2 996.0 0.6
29/06:30pm 12.6 4.9 5.3 61 3.4 NNW 35 57 19 31 995.8 995.6 0.2
29/06:00pm 13.5 4.9 4.4 54 4.2 NW 39 69 21 37 995.3 995.2 0.2
29/05:30pm 12.9 3.6 5.1 59 3.6 NW 43 70 23 38 995.3 995.2 0.2
29/05:00pm 14.2 5.4 3.7 49 4.8 NW 39 65 21 35 994.9 994.8 0.2
29/04:30pm 14.6 7.2 4.0 49 4.9 NNW 32 52 17 28 994.7 994.6 0.2
29/04:00pm 14.9 4.7 3.4 46 5.3 NW 46 65 25 35 994.7 994.6 0.2
29/03:30pm 15.2 7.2 4.0 47 5.2 NW 35 61 19 33 994.6 994.5 0.2
29/03:00pm 15.9 7.3 4.9 48 5.3 NW 39 69 21 37 994.6 994.5 0.2
29/02:30pm 11.9 5.1 7.0 72 2.4 NW 32 54 17 29 995.3 995.2 0.0
29/02:00pm 13.8 4.4 4.4 53 4.4 NNW 43 61 23 33 995.2 995.1 0.0
29/01:30pm 14.7 4.7 4.1 49 4.9 NW 46 67 25 36 995.2 995.1 0.0
29/01:00pm 14.4 6.5 4.4 51 4.7 NNW 35 54 19 29 995.9 995.7 0.0
29/12:30pm 14.9 6.9 4.0 48 5.0 NNW 35 57 19 31 995.5 995.4 0.0
29/12:24pm 14.9 7.0 4.3 49 4.9 NW 35 56 19 30 995.7 995.5 0.0
29/12:00pm 14.7 6.4 4.1 49 4.9 NNW 37 52 20 28 996.0 995.8 0.0
29/11:30am 15.2 7.3 4.6 49 5.0 NW 35 54 19 29 996.5 996.3 0.0
29/11:10am 14.9 7.1 4.9 51 4.7 NW 35 54 19 29 996.6 996.4 0.0
29/11:00am 13.9 5.2 4.2 52 4.5 NW 39 52 21 28 996.6 996.4 0.0
29/10:35am 14.3 5.7 4.9 53 4.4 NW 39 57 21 31 996.7 996.5 0.0
29/10:30am 13.8 4.8 4.4 53 4.3 NW 41 54 22 29 996.8 996.6 0.0
29/10:00am 14.0 5.8 4.9 54 4.3 NW 37 56 20 30 997.0 996.8 0.0
29/09:35am 12.9 4.2 4.3 56 3.9 NW 39 57 21 31 997.3 997.1 0.0
29/09:30am 13.0 4.7 4.2 55 4.0 NNW 37 54 20 29 997.4 997.2 0.0
29/09:13am 12.8 4.9 4.3 56 3.9 NW 35 56 19 30 997.5 997.3 0.0
29/09:00am 12.7 5.2 4.7 58 3.7 NW 33 48 18 26 997.4 997.2 10.2
29/08:30am 12.0 4.6 4.2 59 3.5 NW 32 50 17 27 997.5 997.3 10.2
29/08:14am 11.8 5.3 4.8 62 3.2 NW 28 48 15 26 997.5 997.3 10.2
29/08:00am 11.5 4.3 4.9 64 3.0 NW 32 44 17 24 997.5 997.3 10.2
29/07:30am 10.7 4.1 4.4 65 2.8 NW 28 39 15 21 997.5 997.3 10.2
29/07:02am 10.2 3.8 5.4 72 2.2 NW 28 46 15 25 997.5 997.3 10.2
29/07:00am 10.1 3.3 5.3 72 2.2 NW 30 46 16 25 997.5 997.3 10.2
29/06:31am 9.9 2.8 5.3 73 2.1 NW 32 50 17 27 997.1 996.9 10.2
29/06:30am 10.0 2.9 5.4 73 2.1 NW 32 46 17 25 997.1 996.9 10.2
29/06:00am 10.2 4.1 6.5 78 1.8 NW 28 39 15 21 996.8 996.6 10.2
29/05:30am 10.2 5.0 7.1 81 1.5 NW 24 35 13 19 996.3 996.1 10.2
29/05:00am 10.5 6.1 8.8 89 0.8 NNW 22 37 12 20 996.0 995.8 10.2
29/04:30am 10.2 7.4 10.1 99 0.1 N 15 19 8 10 995.5 995.4 10.2
29/04:00am 10.2 7.8 10.1 99 0.1 N 13 19 7 10 995.5 995.4 10.2
29/03:30am 10.1 7.7 10.0 99 0.1 N 13 15 7 8 995.3 995.2 10.2
29/03:00am 10.4 8.8 10.2 99 0.1 N 9 13 5 7 995.4 995.3 10.2
29/02:30am 10.3 10.0 10.1 99 0.1 WNW 2 6 1 3 995.3 995.2 10.2
29/02:00am 10.2 8.6 10.1 99 0.1 WNW 9 19 5 10 995.9 995.7 10.2
29/01:30am 10.1 6.2 9.5 96 0.3 WSW 20 33 11 18 996.7 996.5 8.6
29/01:15am 10.1 5.3 9.0 93 0.5 W 24 44 13 24 997.1 996.9 8.4
29/01:00am 13.6 8.7 11.3 86 1.2 NNW 28 59 15 32 996.8 996.6 6.4
29/12:30am 15.1 11.1 14.1 94 0.6 N 28 43 15 23 995.1 995.0 6.2
29/12:00am 15.3 11.3 14.0 92 0.7 N 28 37 15 20 996.1 995.9 6.0

Other Formats:

Comma delimited format used in spreadsheet applications
http://www.bom.gov.au/fwo/IDN60801/IDN60801.95697.axf

JavaScript Object Notation format (JSON) in row-major order
http://www.bom.gov.au/fwo/IDN60801/IDN60801.95697.json